Time;durP1;ratioP1;P1;durP2;ratioP2;P2;SDS_P1;SDS_P2;PMS_P1;PMS_P2;Temp;Humidity;BMP_temperature;BMP_pressure;BME280_temperature;BME280_humidity;BME280_pressure;Samples;Min_cycle;Max_cycle;Signal;HPM_P1;HPM_P2
2022/07/24 00:00:39;;;;;;;6.00;3.13;;;;;;;26.01;54.08;100697.13;5010593;28;20033;-63
2022/07/24 00:03:05;;;;;;;9.85;3.53;;;;;;;26.04;54.47;100685.97;5009393;28;20049;-64
2022/07/24 00:05:31;;;;;;;7.60;3.78;;;;;;;26.03;51.31;100696.88;5013052;28;20080;-64
2022/07/24 00:07:56;;;;;;;8.38;3.22;;;;;;;26.42;46.71;100692.53;5025385;28;20099;-64
2022/07/24 00:10:22;;;;;;;6.20;3.10;;;;;;;26.58;46.36;100686.34;5022642;28;20044;-64
2022/07/24 00:12:48;;;;;;;5.72;3.63;;;;;;;26.62;46.78;100682.13;5012276;28;20287;-65
2022/07/24 00:15:13;;;;;;;7.80;3.13;;;;;;;26.46;48.21;100677.63;5018279;28;20059;-64
2022/07/24 00:17:39;;;;;;;6.57;3.22;;;;;;;26.47;48.69;100673.09;5012691;28;20053;-64
2022/07/24 00:20:06;;;;;;;4.75;3.35;;;;;;;26.51;47.96;100658.97;5020989;28;20035;-65
2022/07/24 00:22:32;;;;;;;4.20;3.30;;;;;;;26.60;46.28;100641.47;5024855;28;20144;-65
2022/07/24 00:24:57;;;;;;;3.83;2.72;;;;;;;26.77;44.95;100636.91;5014855;28;20494;-65
2022/07/24 00:27:23;;;;;;;8.82;3.47;;;;;;;26.90;43.89;100613.56;5022620;28;20034;-64
2022/07/24 00:29:49;;;;;;;4.93;3.15;;;;;;;27.04;43.19;100604.09;5009164;28;20037;-66
2022/07/24 00:32:14;;;;;;;5.25;3.10;;;;;;;27.12;43.04;100595.66;5021592;28;20535;-65
2022/07/24 00:34:40;;;;;;;5.95;2.75;;;;;;;27.08;43.76;100589.19;5022995;28;20116;-65
2022/07/24 00:37:05;;;;;;;4.55;3.10;;;;;;;26.98;44.63;100583.72;5021639;28;20044;-63
2022/07/24 00:39:31;;;;;;;6.50;3.45;;;;;;;26.92;46.03;100579.34;5018092;28;20288;-64
2022/07/24 00:41:57;;;;;;;6.45;3.45;;;;;;;26.77;47.01;100586.13;5027199;28;20394;-63
2022/07/24 00:44:22;;;;;;;7.93;3.63;;;;;;;26.67;47.33;100601.22;5022940;28;20065;-63
2022/07/24 00:46:48;;;;;;;9.68;3.70;;;;;;;26.62;47.23;100604.63;5013722;28;20026;-62
2022/07/24 00:49:17;;;;;;;8.52;3.78;;;;;;;26.69;46.45;100607.13;5012396;28;20038;-63
2022/07/24 00:51:45;;;;;;;4.22;3.58;;;;;;;26.77;46.03;100609.38;5008458;28;20382;-63
2022/07/24 00:54:13;;;;;;;5.93;3.50;;;;;;;26.76;46.52;100613.91;5017066;28;20397;-62
2022/07/24 00:56:42;;;;;;;10.40;3.47;;;;;;;26.68;46.64;100622.34;5027129;28;20025;-62
2022/07/24 00:59:07;;;;;;;9.38;3.85;;;;;;;26.62;46.88;100612.66;5024319;28;20495;-63
2022/07/24 01:01:33;;;;;;;5.97;3.22;;;;;;;26.63;47.10;100619.59;5010143;28;20137;-63
2022/07/24 01:03:59;;;;;;;8.07;3.90;;;;;;;26.65;46.89;100617.50;5021196;28;20033;-63
2022/07/24 01:06:25;;;;;;;5.95;3.67;;;;;;;26.58;47.24;100619.53;5026812;28;20030;-63
2022/07/24 01:08:51;;;;;;;4.97;3.88;;;;;;;26.51;47.46;100610.88;5026365;28;20440;-63
2022/07/24 01:11:18;;;;;;;6.63;4.00;;;;;;;26.55;47.31;100601.31;5012791;28;20376;-63
2022/07/24 01:13:46;;;;;;;5.47;4.43;;;;;;;26.52;47.65;100607.16;5030051;28;20752;-63
2022/07/24 01:16:11;;;;;;;8.98;4.60;;;;;;;26.46;47.80;100616.19;5015910;28;20482;-63
2022/07/24 01:18:37;;;;;;;7.93;4.30;;;;;;;26.47;48.13;100614.31;5008385;28;20120;-63
2022/07/24 01:21:04;;;;;;;7.15;4.35;;;;;;;26.48;47.71;100616.72;5009520;28;20375;-63
2022/07/24 01:23:29;;;;;;;6.93;5.00;;;;;;;26.48;47.45;100608.69;5008056;28;20073;-63
2022/07/24 01:25:55;;;;;;;6.97;4.85;;;;;;;26.50;47.20;100603.09;5018493;28;20069;-63
2022/07/24 01:28:20;;;;;;;7.45;4.68;;;;;;;26.51;47.13;100610.06;5028118;28;20034;-62
2022/07/24 01:30:46;;;;;;;8.23;4.55;;;;;;;26.53;46.87;100608.78;5021292;28;20128;-63
2022/07/24 01:33:12;;;;;;;7.65;4.82;;;;;;;26.56;46.28;100621.66;5008303;28;20022;-62
2022/07/24 01:35:38;;;;;;;7.72;4.13;;;;;;;26.61;46.54;100616.38;5023456;28;20037;-64
2022/07/24 01:38:03;;;;;;;8.43;4.13;;;;;;;26.57;46.93;100609.91;5013616;28;20107;-63
2022/07/24 01:40:29;;;;;;;8.90;4.38;;;;;;;26.48;47.67;100619.38;5017347;28;20142;-67
2022/07/24 01:42:54;;;;;;;7.68;3.92;;;;;;;26.42;46.92;100649.78;5013759;28;20116;-64
2022/07/24 01:45:20;;;;;;;5.88;4.40;;;;;;;26.43;48.14;100662.88;5021727;28;20067;-68
2022/07/24 01:47:46;;;;;;;4.72;4.03;;;;;;;26.38;47.80;100678.84;5017703;28;20037;-66
2022/07/24 01:50:12;;;;;;;6.60;3.65;;;;;;;26.42;47.52;100693.31;5025084;28;20469;-67
2022/07/24 01:52:38;;;;;;;4.88;3.85;;;;;;;26.50;47.50;100699.28;5017469;28;20037;-65
2022/07/24 01:55:05;;;;;;;6.13;3.95;;;;;;;26.51;48.03;100719.59;5015908;28;20026;-67
2022/07/24 01:57:32;;;;;;;7.40;3.67;;;;;;;26.50;48.61;100721.47;5031522;28;20065;-68
2022/07/24 01:59:58;;;;;;;4.30;3.53;;;;;;;26.43;49.43;100716.31;5028604;28;20037;-64
2022/07/24 02:02:24;;;;;;;6.40;3.92;;;;;;;26.38;49.69;100707.41;5016774;28;20034;-65
2022/07/24 02:04:49;;;;;;;4.53;3.10;;;;;;;26.35;49.91;100703.38;5019005;28;20032;-68
2022/07/24 02:07:15;;;;;;;7.88;3.67;;;;;;;26.34;51.36;100690.25;5011343;28;20045;-66
2022/07/24 02:09:40;;;;;;;5.20;3.67;;;;;;;26.15;54.40;100686.97;5011164;28;20057;-67
2022/07/24 02:12:06;;;;;;;4.35;3.72;;;;;;;25.81;56.40;100670.09;5027650;28;20072;-67
2022/07/24 02:14:32;;;;;;;4.88;3.67;;;;;;;25.32;56.98;100648.34;5028515;28;20108;-65
2022/07/24 02:16:57;;;;;;;8.32;3.83;;;;;;;25.17;56.83;100637.38;5013169;28;20038;-66
2022/07/24 02:19:24;;;;;;;9.35;3.67;;;;;;;25.21;56.49;100609.19;5022930;28;20045;-67
2022/07/24 02:21:50;;;;;;;4.93;3.97;;;;;;;25.17;57.13;100589.38;5024783;28;20359;-66
2022/07/24 02:24:16;;;;;;;3.88;3.40;;;;;;;25.21;56.00;100571.88;5010853;28;20129;-65
2022/07/24 02:26:41;;;;;;;6.55;3.85;;;;;;;25.25;55.43;100581.03;5014195;28;20083;-65
2022/07/24 02:29:07;;;;;;;5.80;3.75;;;;;;;25.29;54.75;100594.69;5030270;28;20103;-65
2022/07/24 02:31:32;;;;;;;5.30;3.83;;;;;;;25.31;54.48;100601.41;5025789;28;20042;-66
2022/07/24 02:33:58;;;;;;;11.85;4.20;;;;;;;25.35;53.24;100612.41;5024694;28;20468;-65
2022/07/24 02:36:24;;;;;;;6.00;4.45;;;;;;;25.39;52.59;100614.34;5020278;28;20037;-64
2022/07/24 02:38:49;;;;;;;5.80;4.55;;;;;;;25.40;53.40;100605.31;5014797;28;20042;-65
2022/07/24 02:41:15;;;;;;;7.47;4.05;;;;;;;25.42;53.81;100615.75;5029493;28;20087;-65
2022/07/24 02:43:41;;;;;;;6.40;4.95;;;;;;;25.46;56.53;100615.03;5011368;28;20065;-65
2022/07/24 02:46:06;;;;;;;6.35;4.10;;;;;;;25.37;57.99;100619.13;5012999;28;20558;-64
2022/07/24 02:48:32;;;;;;;10.57;4.60;;;;;;;25.21;58.35;100621.72;5010655;28;20114;-64
2022/07/24 02:50:57;;;;;;;6.35;4.28;;;;;;;25.15;59.36;100623.47;5011523;28;20037;-65
2022/07/24 02:53:23;;;;;;;5.78;4.00;;;;;;;24.99;60.18;100619.72;5024222;28;20124;-67
2022/07/24 02:55:48;;;;;;;5.82;5.07;;;;;;;24.82;60.43;100618.78;5026168;28;20056;-65
2022/07/24 02:58:14;;;;;;;6.10;4.38;;;;;;;24.71;60.70;100612.41;5010869;28;20555;-64
2022/07/24 03:00:39;;;;;;;8.73;5.00;;;;;;;24.52;59.29;100610.97;5012918;28;20029;-66
2022/07/24 03:03:05;;;;;;;8.40;4.75;;;;;;;24.50;58.22;100606.91;5026429;28;20032;-64
2022/07/24 03:05:30;;;;;;;6.03;4.57;;;;;;;24.69;56.62;100609.19;5016041;28;20034;-65
2022/07/24 03:07:56;;;;;;;9.20;5.60;;;;;;;24.80;55.59;100604.88;5019853;28;20025;-66
2022/07/24 03:10:22;;;;;;;6.18;5.18;;;;;;;24.84;54.93;100605.22;5022839;28;20065;-66
2022/07/24 03:12:48;;;;;;;7.82;4.60;;;;;;;24.83;54.79;100609.75;5021539;28;20021;-65
2022/07/24 03:15:14;;;;;;;11.23;4.60;;;;;;;24.90;55.36;100605.09;5025879;28;20560;-64
2022/07/24 03:17:49;;;;;;;8.65;4.80;;;;;;;24.86;57.48;100603.94;5029784;28;20029;-66
2022/07/24 03:20:14;;;;;;;6.20;5.40;;;;;;;24.70;58.74;100608.13;5013506;28;20067;-66
2022/07/24 03:22:40;;;;;;;6.30;4.68;;;;;;;24.53;59.14;100609.91;5020703;28;20113;-64
2022/07/24 03:25:05;;;;;;;6.30;5.28;;;;;;;24.41;59.91;100615.25;5023702;28;20033;-64
2022/07/24 03:27:31;;;;;;;9.10;4.60;;;;;;;24.33;60.58;100614.75;5011232;28;20462;-63
2022/07/24 03:29:56;;;;;;;7.20;4.90;;;;;;;24.24;60.93;100618.78;5015244;28;20057;-64
2022/07/24 03:32:22;;;;;;;5.63;5.00;;;;;;;24.19;61.27;100619.47;5021390;28;20048;-64
2022/07/24 03:34:48;;;;;;;7.03;5.60;;;;;;;24.09;61.48;100622.72;5020461;28;20022;-65
2022/07/24 03:37:13;;;;;;;7.50;5.10;;;;;;;24.03;61.76;100626.28;5007587;28;20476;-66
2022/07/24 03:39:39;;;;;;;10.40;5.75;;;;;;;24.01;61.54;100631.03;5012454;28;20044;-65
2022/07/24 03:42:05;;;;;;;9.35;6.10;;;;;;;24.00;61.10;100631.25;5011361;28;20041;-64
2022/07/24 03:44:30;;;;;;;10.80;5.70;;;;;;;24.11;60.23;100628.59;5029424;28;20099;-65
2022/07/24 03:46:56;;;;;;;7.70;5.28;;;;;;;24.13;60.55;100636.34;5023134;28;20187;-63
2022/07/24 03:49:21;;;;;;;5.55;4.97;;;;;;;24.21;60.06;100632.53;5027147;28;20056;-66
2022/07/24 03:51:47;;;;;;;8.18;5.25;;;;;;;24.17;59.51;100635.66;5010040;28;20085;-64
2022/07/24 03:54:12;;;;;;;9.38;4.80;;;;;;;24.20;60.14;100639.72;5024793;28;20385;-65
2022/07/24 03:56:38;;;;;;;5.28;4.88;;;;;;;24.20;60.09;100633.59;5018184;28;20041;-65
2022/07/24 04:01:38;;;;;;;7.45;4.35;;;;;;;24.12;60.31;100645.38;4591210;23;20053;-63
2022/07/24 04:04:07;;;;;;;7.80;3.60;;;;;;;24.10;60.37;100642.94;5029280;28;20550;-63
2022/07/24 04:06:33;;;;;;;4.43;3.78;;;;;;;24.10;59.88;100648.25;5027600;28;20075;-63
2022/07/24 04:09:00;;;;;;;7.82;3.35;;;;;;;24.11;59.71;100647.22;5028561;28;20037;-65
2022/07/24 04:11:25;;;;;;;3.15;2.83;;;;;;;24.10;59.85;100642.94;5028236;28;20129;-66
2022/07/24 04:13:51;;;;;;;3.80;2.55;;;;;;;24.09;59.73;100649.34;5027241;28;20276;-65
2022/07/24 04:16:17;;;;;;;3.38;2.85;;;;;;;24.07;59.50;100646.09;5027130;28;20362;-64
2022/07/24 04:18:42;;;;;;;3.80;2.13;;;;;;;24.09;60.10;100652.00;5028420;28;20032;-65
2022/07/24 04:21:08;;;;;;;4.35;2.53;;;;;;;24.04;60.08;100648.41;5026493;28;20030;-64
2022/07/24 04:23:34;;;;;;;3.22;2.63;;;;;;;23.98;60.50;100660.75;5028546;28;20039;-63
2022/07/24 04:25:59;;;;;;;3.97;2.83;;;;;;;24.04;60.36;100657.19;5028400;28;20374;-66
2022/07/24 04:28:25;;;;;;;2.88;2.58;;;;;;;24.10;60.38;100660.78;5028732;28;20033;-66
2022/07/24 04:30:51;;;;;;;3.78;2.08;;;;;;;24.15;60.22;100658.22;5009344;28;20036;-67
2022/07/24 04:33:16;;;;;;;2.60;2.40;;;;;;;24.21;59.73;100654.66;5026708;28;20033;-67
2022/07/24 04:35:42;;;;;;;3.85;2.80;;;;;;;24.33;59.74;100660.03;5028302;28;20033;-63
2022/07/24 04:38:08;;;;;;;2.75;1.88;;;;;;;24.38;60.43;100652.97;5028433;28;20026;-65
2022/07/24 04:40:33;;;;;;;2.88;2.63;;;;;;;24.38;60.74;100660.16;5026438;28;20033;-64
2022/07/24 04:42:59;;;;;;;2.75;2.55;;;;;;;24.31;60.15;100664.78;5028462;28;20029;-64
2022/07/24 04:45:24;;;;;;;2.97;2.60;;;;;;;24.29;60.28;100665.00;5025288;28;20037;-64
2022/07/24 04:47:50;;;;;;;3.20;2.90;;;;;;;24.36;60.10;100671.03;5028413;28;20060;-64
2022/07/24 04:50:15;;;;;;;4.00;2.42;;;;;;;24.36;60.17;100671.03;5026961;28;20079;-66
2022/07/24 04:52:41;;;;;;;2.92;2.63;;;;;;;24.34;60.26;100672.31;5028436;28;20071;-67
2022/07/24 04:55:08;;;;;;;3.47;2.53;;;;;;;24.41;59.89;100665.03;5028179;28;20029;-65
2022/07/24 04:57:33;;;;;;;2.50;1.88;;;;;;;24.52;60.49;100666.88;5028597;28;20380;-64
2022/07/24 04:59:59;;;;;;;4.30;2.60;;;;;;;24.54;60.61;100664.00;5026952;28;20029;-67
2022/07/24 05:02:24;;;;;;;3.08;2.40;;;;;;;24.55;60.42;100670.94;5009432;28;20132;-65
2022/07/24 05:04:50;;;;;;;2.83;2.63;;;;;;;24.60;60.19;100669.19;5028143;28;20473;-65
2022/07/24 05:07:16;;;;;;;2.65;2.28;;;;;;;24.64;60.07;100678.31;5028189;28;20029;-66
2022/07/24 05:09:41;;;;;;;2.97;2.67;;;;;;;24.72;59.80;100682.50;5026064;28;20065;-64
2022/07/24 05:12:07;;;;;;;3.00;2.70;;;;;;;24.74;59.58;100673.22;5029937;28;20040;-64
2022/07/24 05:14:32;;;;;;;3.30;2.63;;;;;;;24.80;59.68;100680.31;5030911;28;20112;-64
2022/07/24 05:16:58;;;;;;;2.78;2.28;;;;;;;24.85;60.07;100684.13;5031613;28;20080;-64
2022/07/24 05:19:23;;;;;;;3.90;2.30;;;;;;;24.83;60.00;100688.88;5031736;28;20062;-63
2022/07/24 05:21:49;;;;;;;4.90;2.75;;;;;;;24.79;59.59;100686.66;5030306;28;20022;-65
2022/07/24 05:24:15;;;;;;;2.95;1.95;;;;;;;24.85;59.37;100692.13;5031830;28;20179;-66
2022/07/24 05:26:40;;;;;;;3.15;2.53;;;;;;;24.96;59.77;100688.66;5031906;28;20025;-66
2022/07/24 05:29:06;;;;;;;2.80;2.58;;;;;;;25.03;59.80;100694.69;5032039;28;20025;-65
2022/07/24 05:31:33;;;;;;;2.85;1.98;;;;;;;25.13;59.62;100686.88;5030447;28;20041;-65
2022/07/24 05:33:58;;;;;;;3.35;1.98;;;;;;;25.21;59.47;100688.38;5032157;28;20037;-66
2022/07/24 05:36:24;;;;;;;3.33;2.20;;;;;;;25.28;59.53;100689.88;5031716;28;20156;-66
2022/07/24 05:38:50;;;;;;;2.40;2.10;;;;;;;25.44;58.88;100689.13;5031441;28;20029;-63
2022/07/24 05:41:16;;;;;;;3.45;2.33;;;;;;;25.73;58.07;100689.97;5013627;28;20083;-64
2022/07/24 05:43:41;;;;;;;2.58;2.33;;;;;;;25.95;57.05;100698.13;5031659;28;20037;-64
2022/07/24 05:46:07;;;;;;;3.72;2.25;;;;;;;26.12;56.51;100693.59;5031503;28;20435;-67
2022/07/24 05:48:33;;;;;;;2.78;2.22;;;;;;;26.26;56.57;100702.09;5031950;28;20025;-64
2022/07/24 05:50:59;;;;;;;2.88;2.33;;;;;;;26.37;56.10;100703.13;5031466;28;20121;-63
2022/07/24 05:53:24;;;;;;;2.80;2.30;;;;;;;26.31;56.21;100698.75;5031339;28;20029;-64
2022/07/24 05:55:51;;;;;;;3.95;2.22;;;;;;;26.28;56.00;100701.88;5031410;28;20183;-65
2022/07/24 05:58:16;;;;;;;2.47;2.00;;;;;;;26.31;55.95;100701.41;5031755;28;20029;-64
2022/07/24 06:00:42;;;;;;;2.70;2.33;;;;;;;26.31;55.94;100704.91;5031359;28;20029;-64
2022/07/24 06:03:08;;;;;;;2.58;2.00;;;;;;;26.31;55.61;100701.41;5031317;28;20040;-64
2022/07/24 06:05:34;;;;;;;2.13;1.90;;;;;;;26.33;55.94;100702.78;5031379;28;20030;-64
2022/07/24 06:07:59;;;;;;;3.35;2.20;;;;;;;26.41;56.01;100702.41;5031200;28;20095;-64
2022/07/24 06:10:24;;;;;;;2.78;2.55;;;;;;;26.50;55.82;100699.28;5030990;28;20025;-63
2022/07/24 06:12:50;;;;;;;2.60;2.40;;;;;;;26.59;55.07;100703.16;5031026;28;20025;-63
2022/07/24 06:15:16;;;;;;;2.13;1.92;;;;;;;26.69;54.82;100701.47;5030967;28;20061;-63
2022/07/24 06:17:42;;;;;;;2.45;1.98;;;;;;;26.75;54.46;100700.50;5031319;28;20053;-63
2022/07/24 06:20:09;;;;;;;3.17;2.42;;;;;;;26.91;54.05;100706.06;5030846;28;20063;-64
2022/07/24 06:22:34;;;;;;;1.80;1.60;;;;;;;27.05;53.52;100702.78;5030649;28;20025;-64
2022/07/24 06:25:00;;;;;;;2.63;2.40;;;;;;;27.28;53.46;100701.75;5030343;28;20109;-65
2022/07/24 06:27:25;;;;;;;3.30;2.00;;;;;;;27.47;52.90;100709.44;5030915;28;20036;-64
2022/07/24 06:29:51;;;;;;;1.75;1.60;;;;;;;27.68;52.59;100714.00;5030539;28;20120;-65
2022/07/24 06:32:16;;;;;;;3.85;2.20;;;;;;;27.86;51.84;100707.50;5030722;28;20181;-65
2022/07/24 06:34:42;;;;;;;2.55;1.80;;;;;;;27.94;52.07;100718.53;5030768;28;20056;-65
2022/07/24 06:37:07;;;;;;;2.42;2.00;;;;;;;28.05;52.17;100712.22;5030220;28;20049;-65
2022/07/24 06:39:33;;;;;;;2.55;2.03;;;;;;;28.09;51.65;100718.69;5030369;28;20033;-64
2022/07/24 06:41:58;;;;;;;2.65;1.75;;;;;;;28.08;51.70;100717.09;5030868;28;20029;-64
2022/07/24 06:44:24;;;;;;;2.40;1.75;;;;;;;28.12;52.16;100712.03;5030840;28;20116;-63
2022/07/24 06:46:50;;;;;;;2.28;1.80;;;;;;;28.11;51.59;100714.97;5030429;28;20060;-65
2022/07/24 06:49:16;;;;;;;2.40;1.83;;;;;;;28.16;50.66;100717.69;5030519;28;20073;-66
2022/07/24 06:51:41;;;;;;;1.90;1.70;;;;;;;28.21;50.56;100712.38;5030227;28;20033;-65
2022/07/24 06:54:07;;;;;;;2.30;1.92;;;;;;;28.35;51.32;100708.25;5030610;28;20128;-64
2022/07/24 06:56:33;;;;;;;2.83;2.13;;;;;;;28.77;49.50;100718.19;5030682;28;20026;-64
2022/07/24 06:58:59;;;;;;;2.85;1.77;;;;;;;29.21;48.47;100722.19;5030553;28;20125;-65
2022/07/24 07:01:25;;;;;;;2.25;2.03;;;;;;;29.19;47.78;100715.47;5012076;28;20056;-63
2022/07/24 07:03:54;;;;;;;2.17;1.85;;;;;;;29.53;47.31;100722.06;5029742;28;20027;-64
2022/07/24 07:06:20;;;;;;;2.58;2.05;;;;;;;29.65;46.69;100717.28;5029887;28;20037;-66
2022/07/24 07:08:45;;;;;;;1.60;1.40;;;;;;;29.38;46.55;100714.72;5030096;28;20120;-65
2022/07/24 07:11:11;;;;;;;2.40;2.03;;;;;;;29.14;47.47;100724.31;5030166;28;20489;-67
2022/07/24 07:13:36;;;;;;;2.20;1.90;;;;;;;29.06;47.20;100722.13;5030268;28;20025;-67
2022/07/24 07:16:02;;;;;;;2.20;2.00;;;;;;;29.06;47.69;100727.47;5029980;28;20144;-69
2022/07/24 07:18:28;;;;;;;2.90;1.75;;;;;;;29.02;47.17;100724.50;5027981;28;20029;-67
2022/07/24 07:20:53;;;;;;;2.80;1.95;;;;;;;29.10;47.47;100730.44;5029389;28;20025;-68
2022/07/24 07:23:28;;;;;;;2.50;2.30;;;;;;;29.00;46.47;100723.97;5029457;28;20611;-67
2022/07/24 07:25:54;;;;;;;2.85;1.75;;;;;;;29.05;47.35;100725.88;5029199;28;20025;-68
2022/07/24 07:28:20;;;;;;;3.00;2.30;;;;;;;29.11;46.69;100724.81;5029062;28;20021;-67
2022/07/24 07:30:46;;;;;;;2.85;2.00;;;;;;;29.40;46.31;100733.25;5029393;28;20064;-68
2022/07/24 07:33:11;;;;;;;2.05;1.58;;;;;;;29.79;46.34;100728.28;5029162;28;20049;-68
2022/07/24 07:35:37;;;;;;;3.13;1.50;;;;;;;29.81;46.08;100728.03;5029178;28;20056;-66
2022/07/24 07:38:02;;;;;;;3.25;1.95;;;;;;;29.82;46.06;100729.66;5028607;28;20029;-66
2022/07/24 07:40:28;;;;;;;2.00;1.80;;;;;;;30.01;45.27;100725.41;5029073;28;20025;-68
2022/07/24 07:42:53;;;;;;;3.63;1.80;;;;;;;30.20;44.32;100728.41;5028880;28;20029;-67
2022/07/24 07:45:19;;;;;;;2.38;1.55;;;;;;;30.54;43.80;100728.66;5029002;28;20060;-67
2022/07/24 07:47:45;;;;;;;1.80;1.70;;;;;;;30.80;42.96;100721.34;5028760;28;20394;-66
2022/07/24 07:50:11;;;;;;;2.53;1.58;;;;;;;30.95;42.83;100715.94;5028973;28;20037;-66
2022/07/24 07:52:37;;;;;;;2.83;1.70;;;;;;;30.82;42.77;100721.91;5028931;28;20029;-67
2022/07/24 07:55:04;;;;;;;1.98;1.77;;;;;;;30.91;42.30;100720.25;5029091;28;20033;-66
2022/07/24 07:57:29;;;;;;;1.42;1.33;;;;;;;31.05;42.29;100715.94;5019058;28;20025;-64
2022/07/24 07:59:55;;;;;;;2.30;1.83;;;;;;;31.06;42.11;100716.72;5028929;28;20175;-67
2022/07/24 08:02:20;;;;;;;1.83;1.60;;;;;;;30.97;42.09;100717.28;5024820;28;20057;-66
2022/07/24 08:04:46;;;;;;;1.92;1.67;;;;;;;30.92;41.39;100717.31;5028879;28;20041;-66
2022/07/24 08:07:12;;;;;;;1.92;1.70;;;;;;;30.72;41.31;100722.72;5025409;28;20041;-65
2022/07/24 08:09:37;;;;;;;2.88;1.70;;;;;;;30.67;41.57;100720.88;5027799;28;20033;-67
2022/07/24 08:12:04;;;;;;;2.20;2.00;;;;;;;30.53;41.66;100725.16;5009980;28;20029;-66
2022/07/24 08:14:30;;;;;;;1.80;1.70;;;;;;;30.61;42.34;100727.31;5006625;28;20041;-67
2022/07/24 08:16:55;;;;;;;1.95;1.73;;;;;;;30.82;41.51;100722.69;5011002;28;20504;-66
2022/07/24 08:19:21;;;;;;;2.03;1.80;;;;;;;31.20;41.18;100718.56;5027158;28;20067;-67
2022/07/24 08:21:47;;;;;;;3.70;1.60;;;;;;;31.31;41.49;100730.91;5010002;28;20481;-66
2022/07/24 08:24:12;;;;;;;2.25;2.05;;;;;;;31.53;40.55;100727.06;5026338;28;20079;-67
2022/07/24 08:26:38;;;;;;;2.28;1.65;;;;;;;31.50;40.36;100722.22;5028658;28;20204;-67
2022/07/24 08:29:04;;;;;;;1.48;1.38;;;;;;;31.81;39.83;100720.97;5016082;28;20374;-65
2022/07/24 08:31:30;;;;;;;1.85;1.48;;;;;;;32.15;39.39;100723.69;5019488;28;20037;-67
2022/07/24 08:33:55;;;;;;;2.53;1.50;;;;;;;32.07;39.31;100710.03;5026549;28;20030;-66
2022/07/24 08:36:21;;;;;;;2.28;2.08;;;;;;;32.09;39.81;100726.72;5010759;28;20044;-66
2022/07/24 08:38:47;;;;;;;1.38;1.27;;;;;;;32.46;39.31;100718.06;5020280;28;20029;-70
2022/07/24 08:41:13;;;;;;;1.45;1.25;;;;;;;32.23;38.58;100719.63;5010301;28;20116;-65
2022/07/24 08:43:39;;;;;;;2.10;1.52;;;;;;;32.21;38.88;100721.75;5026659;28;20124;-66
2022/07/24 08:46:11;;;;;;;1.73;1.35;;;;;;;32.46;38.41;100720.78;5021776;28;20109;-64
2022/07/24 08:48:42;;;;;;;1.65;1.40;;;;;;;32.65;38.29;100719.75;5022143;28;20396;-64
2022/07/24 08:51:07;;;;;;;2.50;1.50;;;;;;;32.61;37.81;100713.31;5025999;28;20194;-64
2022/07/24 08:53:33;;;;;;;1.70;1.60;;;;;;;32.44;38.18;100712.97;5024719;28;20123;-64
2022/07/24 08:55:59;;;;;;;2.45;1.48;;;;;;;32.75;38.09;100724.28;5025045;28;20481;-67
2022/07/24 08:58:25;;;;;;;1.65;1.30;;;;;;;33.28;37.39;100722.34;5026891;28;20108;-67
2022/07/24 09:00:51;;;;;;;1.45;1.25;;;;;;;33.56;36.54;100720.59;5021693;28;20068;-64
2022/07/24 09:03:16;;;;;;;1.15;0.88;;;;;;;33.58;36.75;100725.72;5010948;28;20525;-67
2022/07/24 09:05:56;;;;;;;2.10;1.65;;;;;;;33.48;36.18;100723.97;5021166;28;20113;-64
2022/07/24 09:08:22;;;;;;;2.47;1.80;;;;;;;33.77;36.64;100723.81;5026651;28;20515;-64
2022/07/24 09:11:03;;;;;;;1.52;1.42;;;;;;;33.75;35.75;100731.41;5027400;28;20030;-66
2022/07/24 09:14:29;;;;;;;1.38;1.27;;;;;;;33.78;35.91;100735.44;5001351;28;20026;-65
2022/07/24 09:16:26;;;;;;;1.27;1.00;;;;;;;33.54;36.43;100732.81;5012995;28;20092;-65
2022/07/24 09:19:02;;;;;;;2.63;1.30;;;;;;;33.51;35.35;100730.69;5025829;28;20191;-67
2022/07/24 09:21:32;;;;;;;1.50;1.17;;;;;;;33.15;36.72;100725.69;5025851;28;20090;-67
2022/07/24 09:24:02;;;;;;;1.50;1.05;;;;;;;32.89;36.64;100719.81;5009721;28;20033;-64
2022/07/24 09:26:48;;;;;;;2.15;1.45;;;;;;;32.69;35.51;100727.28;5010206;28;20025;-66
2022/07/24 09:29:15;;;;;;;1.90;1.55;;;;;;;32.53;36.17;100724.75;4998318;28;20076;-68
2022/07/24 09:31:49;;;;;;;1.25;1.02;;;;;;;32.55;35.89;100733.34;5023408;28;20523;-67
2022/07/24 09:34:15;;;;;;;1.83;1.60;;;;;;;32.76;36.27;100741.25;5024212;28;20026;-67
2022/07/24 09:36:41;;;;;;;1.42;1.33;;;;;;;33.20;35.58;100722.94;5025430;28;20464;-68
2022/07/24 09:39:07;;;;;;;1.45;1.33;;;;;;;32.94;35.81;100724.34;5023949;28;20079;-68
2022/07/24 09:41:48;;;;;;;1.10;0.95;;;;;;;32.96;35.94;100722.16;5002781;28;20025;-67
2022/07/24 09:44:14;;;;;;;2.10;1.65;;;;;;;33.06;35.57;100732.84;5005569;28;20026;-66
2022/07/24 09:46:46;;;;;;;1.15;1.05;;;;;;;33.04;35.58;100729.63;5022561;28;20039;-66
2022/07/24 09:49:20;;;;;;;2.03;1.33;;;;;;;33.19;35.87;100732.13;5023964;28;20572;-67
2022/07/24 09:52:05;;;;;;;1.75;0.93;;;;;;;33.33;35.41;100731.47;5008848;28;20540;-65
2022/07/24 09:54:32;;;;;;;;;;;;;;;33.42;33.99;100727.03;5024841;28;20056;-66
2022/07/24 09:57:28;;;;;;;1.50;1.08;;;;;;;33.49;33.99;100724.78;5022732;28;19917;-67
2022/07/24 09:59:59;;;;;;;1.40;1.05;;;;;;;33.58;35.12;100717.59;5025842;28;20550;-68
2022/07/24 10:02:30;;;;;;;1.63;0.95;;;;;;;33.34;34.57;100716.88;5018890;28;20050;-68
2022/07/24 10:04:57;;;;;;;1.80;1.42;;;;;;;33.45;35.13;100721.06;5014259;28;20441;-70
2022/07/24 10:07:24;;;;;;;3.70;1.30;;;;;;;33.54;35.11;100716.63;5022393;28;20056;-66
2022/07/24 10:09:56;;;;;;;1.60;0.80;;;;;;;33.56;33.75;100722.50;5013410;28;20025;-69
2022/07/24 10:12:29;;;;;;;1.52;0.88;;;;;;;33.65;34.08;100728.84;5019788;28;20037;-67
2022/07/24 10:14:59;;;;;;;1.55;1.10;;;;;;;33.67;34.39;100723.16;5022703;28;20029;-69
2022/07/24 10:17:43;;;;;;;2.30;0.90;;;;;;;33.52;34.37;100721.50;5020145;28;20136;-67
2022/07/24 10:20:10;;;;;;;1.98;1.20;;;;;;;33.67;33.88;100715.06;5021288;28;20393;-70
2022/07/24 10:23:00;;;;;;;1.30;1.10;;;;;;;33.63;32.86;100712.13;5027423;28;20026;-68
2022/07/24 10:25:27;;;;;;;1.23;0.90;;;;;;;33.64;33.64;100713.75;5020857;28;20807;-70
2022/07/24 10:27:58;;;;;;;1.80;1.10;;;;;;;33.74;33.62;100710.09;5023197;28;20079;-70
2022/07/24 10:30:24;;;;;;;1.27;1.10;;;;;;;33.87;33.67;100709.41;5022648;28;20048;-66
2022/07/24 10:32:50;;;;;;;1.42;1.00;;;;;;;34.03;32.98;100718.06;5023261;28;20061;-69
2022/07/24 10:35:22;;;;;;;1.20;0.90;;;;;;;33.90;32.53;100715.00;5029167;28;20044;-67
2022/07/24 10:38:06;;;;;;;1.33;0.85;;;;;;;33.77;32.98;100710.31;5025707;28;20116;-67
2022/07/24 10:40:45;;;;;;;1.10;0.80;;;;;;;33.74;32.80;100702.78;5017736;28;20041;-67
2022/07/24 10:43:13;;;;;;;0.90;0.70;;;;;;;33.82;33.21;100702.16;5020377;28;20033;-68
2022/07/24 10:45:39;;;;;;;1.30;0.90;;;;;;;33.82;32.73;100695.97;5024418;28;20029;-65
2022/07/24 10:48:20;;;;;;;1.73;1.00;;;;;;;33.88;32.86;100692.88;5020650;28;20776;-66
2022/07/24 10:51:00;;;;;;;1.00;0.90;;;;;;;34.18;32.13;100694.28;5023716;28;20363;-70
2022/07/24 10:53:37;;;;;;;0.95;0.70;;;;;;;34.30;32.26;100691.13;5024309;28;20029;-70
2022/07/24 10:56:41;;;;;;;1.80;1.00;;;;;;;34.39;30.78;100694.75;5037242;28;20042;-65
2022/07/24 10:59:13;;;;;;;1.30;1.15;;;;;;;34.30;31.80;100680.31;5007511;28;20041;-68
2022/07/24 11:01:44;;;;;;;0.82;0.77;;;;;;;34.26;32.02;100679.28;5005801;28;20060;-67
2022/07/24 11:04:19;;;;;;;1.00;0.90;;;;;;;34.21;31.14;100682.06;5012472;28;20034;-65
2022/07/24 11:06:50;;;;;;;0.90;0.80;;;;;;;34.20;31.50;100692.06;5011686;28;20036;-70
2022/07/24 11:09:18;;;;;;;1.13;1.02;;;;;;;34.40;31.51;100684.75;5016757;28;20515;-68
2022/07/24 11:11:52;;;;;;;0.98;0.70;;;;;;;34.46;31.50;100676.25;5004849;28;20033;-67
2022/07/24 11:14:23;;;;;;;1.17;0.93;;;;;;;34.36;31.28;100673.72;4992823;28;20390;-71
2022/07/24 11:16:49;;;;;;;0.90;0.80;;;;;;;34.09;31.34;100679.03;5043863;28;20040;-70
2022/07/24 11:19:14;;;;;;;1.20;0.98;;;;;;;33.88;31.64;100679.38;5027531;28;20405;-69
2022/07/24 11:21:42;;;;;;;1.60;1.10;;;;;;;34.19;31.25;100678.84;5016324;28;20625;-74
2022/07/24 11:24:19;;;;;;;1.00;0.80;;;;;;;34.25;30.92;100674.97;4996862;28;20029;-68
2022/07/24 11:26:56;;;;;;;1.00;0.70;;;;;;;34.16;31.74;100666.72;5029608;28;20037;-72